createdAt,value
2018-05-18T18:25:14.413Z,168.20
2018-05-18T18:27:43.936Z,166.03
2018-05-18T18:30:12.532Z,156.23
2018-05-18T18:32:41.098Z,156.23
2018-05-18T18:35:10.265Z,141.27
2018-05-18T18:37:38.802Z,148.90
2018-05-18T18:40:07.337Z,137.47
2018-05-18T18:42:35.889Z,133.00
2018-05-18T18:45:05.022Z,132.20
2018-05-18T18:47:34.368Z,124.23
2018-05-18T18:50:02.933Z,110.97
2018-05-18T18:52:32.930Z,110.93
2018-05-18T18:55:03.323Z,112.23
2018-05-18T18:57:31.902Z,105.77
2018-05-18T19:00:01.019Z,106.37
2018-05-18T19:02:30.632Z,105.17
2018-05-18T19:04:59.169Z,101.17
2018-05-18T19:07:29.363Z,98.47
2018-05-18T19:09:58.029Z,86.47
2018-05-18T19:12:29.038Z,89.80
2018-05-18T19:14:57.647Z,90.50
2018-05-18T19:17:28.115Z,87.40
2018-05-18T19:19:57.864Z,81.00
2018-05-18T19:22:26.533Z,84.70
2018-05-18T19:24:56.377Z,72.63
2018-05-18T19:27:25.859Z,71.37
2018-05-18T19:29:54.385Z,74.57
2018-05-18T19:32:29.095Z,70.73
2018-05-18T19:34:58.547Z,71.03
2018-05-18T19:37:28.013Z,66.30
2018-05-18T19:39:56.972Z,64.70
2018-05-18T19:42:25.939Z,65.53
2018-05-18T19:44:54.575Z,59.07
2018-05-18T19:47:23.567Z,58.80
2018-05-18T19:49:53.184Z,55.10
2018-05-18T19:52:23.768Z,52.03
2018-05-18T19:54:52.323Z,48.63
2018-05-18T19:57:23.255Z,50.13
2018-05-18T19:59:53.425Z,46.87
2018-05-18T20:02:24.025Z,45.27
2018-05-18T20:04:52.678Z,45.50
2018-05-18T20:07:23.110Z,41.80
2018-05-18T20:09:51.731Z,39.93
2018-05-18T20:12:21.404Z,40.30
2018-05-18T20:14:49.913Z,38.13
2018-05-18T20:17:18.595Z,37.57
2018-05-18T20:19:47.332Z,36.47
2018-05-18T20:22:17.371Z,33.67
2018-05-18T20:24:49.762Z,33.13
2018-05-18T20:27:18.385Z,37.30
2018-05-18T20:29:47.297Z,32.93
2018-05-18T20:32:16.836Z,28.47
2018-05-18T20:34:49.767Z,31.00
2018-05-18T20:37:18.477Z,26.83
2018-05-18T20:39:48.197Z,28.00
2018-05-18T20:42:17.991Z,25.90
2018-05-18T20:44:47.314Z,26.10
2018-05-18T20:47:17.253Z,22.77
2018-05-18T20:49:46.067Z,24.93
2018-05-18T20:52:14.757Z,23.23
2018-05-18T20:54:43.516Z,22.23
2018-05-18T20:57:13.521Z,21.83
2018-05-18T20:59:43.312Z,22.03
2018-05-18T21:02:12.028Z,22.00
2018-05-18T21:04:40.635Z,21.30
2018-05-18T21:07:09.282Z,22.07
2018-05-18T21:09:38.235Z,20.77
2018-05-18T21:12:06.913Z,20.70
2018-05-18T21:14:35.586Z,21.37
2018-05-18T21:17:04.265Z,19.93
2018-05-18T21:19:34.874Z,19.17
2018-05-18T21:22:04.239Z,18.73
2018-05-18T21:24:34.135Z,17.53
2018-05-18T21:27:02.974Z,19.97
2018-05-18T21:29:33.516Z,17.00
2018-05-18T21:32:02.210Z,16.47
2018-05-18T21:34:31.452Z,18.07
2018-05-18T21:37:06.954Z,18.90
2018-05-18T21:39:35.631Z,15.97
2018-05-18T21:42:05.414Z,16.53
2018-05-18T21:44:34.776Z,17.83
2018-05-18T21:47:04.994Z,15.70
2018-05-18T21:49:35.364Z,16.83
2018-05-18T21:52:08.697Z,15.57
2018-05-18T21:54:37.992Z,17.03
2018-05-18T21:57:07.424Z,15.83
2018-05-18T21:59:36.077Z,14.13
2018-05-18T22:02:05.718Z,13.90
2018-05-18T22:04:34.694Z,16.23
2018-05-18T22:07:04.175Z,13.87
2018-05-18T22:09:33.694Z,14.73
2018-05-18T22:12:04.121Z,16.33
2018-05-18T22:14:33.845Z,15.80
2018-05-18T22:17:04.302Z,15.03
2018-05-18T22:19:34.399Z,12.40
2018-05-18T22:22:03.457Z,14.50
2018-05-18T22:24:32.522Z,13.50
2018-05-18T22:27:01.117Z,13.77
2018-05-18T22:29:29.660Z,11.67
2018-05-18T22:31:58.184Z,13.17
2018-05-18T22:34:28.035Z,12.90
2018-05-18T22:36:57.294Z,12.70
2018-05-18T22:39:26.573Z,13.63
2018-05-18T22:41:55.086Z,11.63
2018-05-18T22:44:23.895Z,11.50
2018-05-18T22:46:53.289Z,13.53
2018-05-18T22:49:22.702Z,12.17
2018-05-18T22:51:51.317Z,10.57
2018-05-18T22:54:20.010Z,12.00
2018-05-18T22:56:48.541Z,12.90
2018-05-18T22:59:18.530Z,11.07
2018-05-18T23:01:47.344Z,11.13
2018-05-18T23:04:15.909Z,12.77
2018-05-18T23:06:45.449Z,13.33
2018-05-18T23:09:15.916Z,10.27
2018-05-18T23:11:45.942Z,11.70
2018-05-18T23:14:15.074Z,11.37
2018-05-18T23:16:44.969Z,10.17
2018-05-18T23:19:15.365Z,10.40
2018-05-18T23:21:44.558Z,10.67
2018-05-18T23:24:13.980Z,12.53
2018-05-18T23:26:42.612Z,11.50
2018-05-18T23:29:12.672Z,9.33
2018-05-18T23:31:41.880Z,9.80
2018-05-18T23:34:10.757Z,12.07
2018-05-18T23:36:39.788Z,10.87
2018-05-18T23:39:08.337Z,10.30
2018-05-18T23:41:37.541Z,11.23
2018-05-18T23:44:06.340Z,10.43
2018-05-18T23:46:34.844Z,10.47
2018-05-18T23:49:03.401Z,10.40
2018-05-18T23:51:31.905Z,10.43
2018-05-18T23:54:00.887Z,9.93
2018-05-18T23:56:30.375Z,9.63
2018-05-18T23:58:58.854Z,9.67
